Ethridge, Montana
Current Conditions -  °F | °C
As of 6:56 PM on Tuesday 21 Oct 2014 (Local Time) from KCTB Reporting Station
Overcast Overcast  
Wind Chill: 41°   Ceiling: 10000
Heat Index: 47°   Visibility: 10mi
Dew Point: 39°   Wind: 15mph
Humidity: 74%   Direction: 250°WSW
Pressure: 29.79"   Gusts: NA
Location:  48.56°N, 112.12°W
Report Text: KCTB 220056Z AUTO 25013KT 10SM OVC100 08/04 A2979 RMK AO2 SLP082 T00830039
Loading
Personal Weather Stations






























Interactive Weather Map
Tropical Storm Tracking
New forecast layout! Learn more

10-Day Weather Forecast

Advertisements
Track Severe Weather on mobile